Main page

Airports :

Milan, Italy

Malpensa Airport

latitude: 45-37N, longitude: 008-44E, elevation: 234 m

Current weather observation

The report was made 26 minutes ago, at 17:50 UTC
Wind 3 kt from the Southwest
Temperature 3°C
Humidity 87%
Pressure 1006 hPa
Visibility: 7000 m
Scattered clouds at a height of 6000 ft

METAR: LIMC 251750Z 23003KT 7000 SCT060 03/01 Q1006 NOSIG

Time: 19:16 (18:16 UTC)


The report was made 1 hour and 16 minutes ago, at 17:00 UTC
Forecast valid from 25 at 18 UTC to 26 at 24 UTC
Wind 5 kt from variable directions
Visibility: 7000 m
Scattered clouds at a height of 8000 ft
from 26 at 07 UTC to 26 at 09 UTC
Wind 12 kt from the North

TAF: LIMC 251700Z 2518/2624 VRB05KT 7000 SCT080 BECMG 2607/2609 35012KT


Weather observations and forecasts of more than 4000 airports (METAR and TAF reports).

The available stations are represented by yellow and red dots on the map.

Hover mouse over dot to see the name of the station.

Then click to see weather observations and forecasts.

To change the map : click on the green buttons with a black cross to zoom in, on the green button with a dash to zoom out, or on the green arrows for adjacent maps.